Time;durP1;ratioP1;P1;durP2;ratioP2;P2;SDS_P1;SDS_P2;PMS_P1;PMS_P2;Temp;Humidity;BMP_temperature;BMP_pressure;BME280_temperature;BME280_humidity;BME280_pressure;Samples;Min_cycle;Max_cycle;Signal;HPM_P1;HPM_P2
2024/02/10 00:00:36;;;;;;;13.77;6.70;;;;;;;8.11;99.01;96129.84;5050529;28;20037;-78
2024/02/10 00:03:02;;;;;;;10.30;6.30;;;;;;;8.07;98.65;96125.44;5053153;28;20131;-77
2024/02/10 00:05:28;;;;;;;10.68;6.95;;;;;;;8.22;98.38;96133.84;5048970;28;20029;-76
2024/02/10 00:07:55;;;;;;;11.63;6.20;;;;;;;8.15;98.99;96144.09;5050597;28;20029;-76
2024/02/10 00:10:29;;;;;;;9.52;5.95;;;;;;;8.05;99.49;96140.88;5050760;28;20389;-76
2024/02/10 00:12:57;;;;;;;9.57;6.45;;;;;;;8.08;99.50;96137.63;5052360;28;20033;-75
2024/02/10 00:15:24;;;;;;;11.70;6.20;;;;;;;8.06;99.04;96121.22;5048925;28;20466;-76
2024/02/10 00:17:50;;;;;;;9.63;6.15;;;;;;;8.14;99.08;96142.53;5049989;28;20108;-76
2024/02/10 00:20:20;;;;;;;12.07;6.97;;;;;;;8.02;100.00;96136.94;5049196;28;20051;-76
2024/02/10 00:22:50;;;;;;;11.75;6.50;;;;;;;8.19;100.00;96137.09;5052228;28;20087;-77
2024/02/10 00:25:15;;;;;;;9.23;5.78;;;;;;;8.12;98.63;96127.97;5048626;28;20056;-78
2024/02/10 00:27:42;;;;;;;11.75;5.97;;;;;;;7.88;100.00;96133.53;5056844;28;20048;-78
2024/02/10 00:30:08;;;;;;;13.68;6.13;;;;;;;8.12;100.00;96136.75;5049718;28;20094;-76
2024/02/10 00:32:37;;;;;;;11.95;6.22;;;;;;;8.29;99.12;96136.94;5051578;28;20041;-78
2024/02/10 00:35:03;;;;;;;9.48;5.53;;;;;;;8.32;97.81;96134.75;5049612;28;20485;-77
2024/02/10 00:37:28;;;;;;;8.57;5.43;;;;;;;8.28;97.52;96131.88;5050262;28;20156;-78
2024/02/10 00:39:54;;;;;;;9.45;6.63;;;;;;;8.33;97.63;96118.50;5049668;28;20112;-78
2024/02/10 00:42:23;;;;;;;8.77;5.30;;;;;;;8.38;96.81;96134.34;5052862;28;20029;-78
2024/02/10 00:44:51;;;;;;;8.82;6.75;;;;;;;8.35;97.83;96131.47;5052580;28;20504;-78
2024/02/10 00:47:16;;;;;;;9.73;6.03;;;;;;;8.30;97.43;96135.81;5050330;28;20033;-78
2024/02/10 00:49:42;;;;;;;8.38;5.55;;;;;;;8.26;97.84;96126.09;5051266;28;20040;-75
2024/02/10 00:52:11;;;;;;;6.53;5.40;;;;;;;8.20;99.01;96133.38;5052644;28;20025;-76
2024/02/10 00:54:37;;;;;;;10.63;5.45;;;;;;;8.26;98.42;96128.75;5049996;28;20032;-76
2024/02/10 00:57:13;;;;;;;8.15;5.30;;;;;;;8.26;98.16;96126.09;5050437;28;20021;-76
2024/02/10 00:59:44;;;;;;;9.18;6.03;;;;;;;8.39;97.06;96132.47;5048197;28;20041;-75
2024/02/10 01:02:10;;;;;;;7.75;5.55;;;;;;;8.20;97.46;96122.75;5049637;28;20033;-76
2024/02/10 01:04:36;;;;;;;6.93;5.38;;;;;;;8.29;97.34;96130.81;5049544;28;20032;-76
2024/02/10 01:07:01;;;;;;;10.85;6.38;;;;;;;8.28;96.97;96124.72;5048016;28;20128;-75
2024/02/10 01:09:30;;;;;;;7.00;5.13;;;;;;;8.28;97.56;96126.56;5044299;28;20033;-76
2024/02/10 01:11:55;;;;;;;6.20;4.60;;;;;;;8.45;96.44;96125.94;5048389;28;20025;-76
2024/02/10 01:14:21;;;;;;;8.52;5.50;;;;;;;8.50;96.55;96128.47;5046797;28;20029;-76
2024/02/10 01:16:48;;;;;;;9.40;5.65;;;;;;;8.28;96.92;96115.94;5051008;28;20029;-75
2024/02/10 01:19:19;;;;;;;8.65;6.07;;;;;;;8.39;96.27;96121.84;5052154;28;20029;-76
2024/02/10 01:21:44;;;;;;;15.85;5.32;;;;;;;8.38;96.84;96129.03;5048343;28;20350;-76
2024/02/10 01:24:10;;;;;;;7.68;4.85;;;;;;;8.47;96.26;96135.19;5052308;28;20036;-76
2024/02/10 01:26:35;;;;;;;6.00;5.43;;;;;;;8.43;96.05;96117.50;5051437;28;20036;-76
2024/02/10 01:29:08;;;;;;;10.70;5.10;;;;;;;8.41;96.45;96123.09;5053877;28;20432;-77
2024/02/10 01:31:34;;;;;;;9.60;5.20;;;;;;;8.34;97.16;96128.06;5056096;28;20029;-77
2024/02/10 01:34:00;;;;;;;7.00;5.13;;;;;;;8.34;97.13;96125.41;5054237;28;20044;-77
2024/02/10 01:36:26;;;;;;;8.77;5.90;;;;;;;8.29;97.37;96120.97;5050045;28;20543;-77
2024/02/10 01:38:52;;;;;;;7.95;5.35;;;;;;;8.23;96.82;96118.72;5054641;28;20119;-76
2024/02/10 01:41:18;;;;;;;8.32;5.28;;;;;;;8.29;96.86;96126.31;5053067;28;20493;-77
2024/02/10 01:43:44;;;;;;;8.45;4.88;;;;;;;8.12;97.47;96138.63;5054841;28;20037;-77
2024/02/10 01:46:15;;;;;;;11.07;5.20;;;;;;;8.05;99.60;96131.03;5053704;28;20029;-78
2024/02/10 01:48:44;;;;;;;8.05;5.13;;;;;;;8.13;98.20;96132.19;5055754;28;20060;-78
2024/02/10 01:51:16;;;;;;;6.07;5.45;;;;;;;8.04;98.37;96134.78;5064893;28;20520;-78
2024/02/10 01:53:42;;;;;;;8.95;5.38;;;;;;;8.06;98.55;96127.28;5057035;28;20036;-77
2024/02/10 01:56:11;;;;;;;9.82;5.22;;;;;;;8.05;99.11;96117.78;5054341;28;20104;-78
2024/02/10 01:58:38;;;;;;;9.30;5.78;;;;;;;8.22;98.46;96125.88;5054512;28;20025;-76
2024/02/10 02:01:04;;;;;;;6.68;5.38;;;;;;;8.29;97.56;96125.50;5053941;28;20091;-75
2024/02/10 02:03:30;;;;;;;5.20;4.68;;;;;;;8.25;97.87;96127.16;5057040;28;20035;-76
2024/02/10 02:05:56;;;;;;;7.43;5.70;;;;;;;8.24;98.07;96122.91;5050095;28;20036;-77
2024/02/10 02:08:21;;;;;;;8.73;6.43;;;;;;;8.27;97.55;96128.47;5052286;28;20017;-76
2024/02/10 02:10:47;;;;;;;9.48;5.75;;;;;;;8.19;98.26;96131.03;5050599;28;20497;-76
2024/02/10 02:13:13;;;;;;;10.95;5.43;;;;;;;8.25;97.33;96127.16;5054529;28;20033;-77
2024/02/10 02:15:39;;;;;;;12.05;6.43;;;;;;;8.21;98.08;96134.16;5053238;28;20025;-78
2024/02/10 02:18:09;;;;;;;10.75;6.75;;;;;;;8.04;98.16;96120.69;5051563;28;20045;-77
2024/02/10 02:20:35;;;;;;;9.50;6.03;;;;;;;8.16;97.70;96129.75;5053215;28;20039;-78
2024/02/10 02:23:03;;;;;;;7.18;5.30;;;;;;;8.24;97.57;96131.69;5055888;28;20107;-78
2024/02/10 02:25:28;;;;;;;7.15;5.50;;;;;;;8.12;97.32;96125.31;5055710;28;20751;-78
2024/02/10 02:27:56;;;;;;;6.85;5.05;;;;;;;8.20;97.91;96132.59;5057964;28;20041;-78
2024/02/10 02:30:22;;;;;;;9.68;5.82;;;;;;;8.27;97.38;96138.31;5054622;28;20032;-78
2024/02/10 02:32:49;;;;;;;6.78;5.63;;;;;;;8.30;97.15;96135.03;5056286;28;20090;-78
2024/02/10 02:35:14;;;;;;;9.95;5.97;;;;;;;8.28;97.04;96134.53;5053458;28;20120;-79
2024/02/10 02:37:41;;;;;;;7.03;5.35;;;;;;;8.34;97.15;96135.25;5052861;28;20111;-77
2024/02/10 02:40:11;;;;;;;7.60;5.75;;;;;;;8.23;97.11;96130.09;5052537;28;20032;-78
2024/02/10 02:42:36;;;;;;;10.98;6.00;;;;;;;8.14;97.09;96123.16;5055736;28;20052;-77
2024/02/10 02:45:05;;;;;;;9.25;5.72;;;;;;;8.36;96.67;96125.09;5037891;28;20033;-79
2024/02/10 02:47:37;;;;;;;10.18;5.70;;;;;;;8.31;96.61;96128.66;5053415;28;20047;-78
2024/02/10 02:50:04;;;;;;;10.90;5.18;;;;;;;8.29;97.30;96120.97;5053356;28;20060;-78
2024/02/10 02:52:30;;;;;;;7.85;5.10;;;;;;;8.16;98.01;96120.97;5051133;28;20056;-79
2024/02/10 02:54:59;;;;;;;8.90;5.43;;;;;;;8.17;98.14;96122.53;5052293;28;20032;-79
2024/02/10 02:57:25;;;;;;;7.05;4.70;;;;;;;8.09;98.44;96117.94;5061810;28;20021;-78
2024/02/10 02:59:52;;;;;;;8.98;6.07;;;;;;;7.95;99.11;96125.94;5051692;28;20052;-78
2024/02/10 03:02:18;;;;;;;7.53;5.68;;;;;;;7.90;99.20;96107.47;5050730;28;20025;-76
2024/02/10 03:04:43;;;;;;;9.48;5.10;;;;;;;7.98;98.81;96109.41;5052436;28;20521;-79
2024/02/10 03:07:09;;;;;;;9.63;5.70;;;;;;;7.81;99.91;96100.50;5049396;28;20390;-77
2024/02/10 03:09:35;;;;;;;10.60;5.63;;;;;;;7.97;99.02;96113.13;5051778;28;20531;-78
2024/02/10 03:12:02;;;;;;;10.73;5.25;;;;;;;7.82;99.87;96108.16;5053918;28;20041;-78
2024/02/10 03:14:28;;;;;;;9.18;5.72;;;;;;;7.78;100.00;96111.69;5049371;28;20021;-76
2024/02/10 03:16:54;;;;;;;8.45;5.32;;;;;;;7.85;99.96;96120.06;5052851;28;20692;-76
2024/02/10 03:19:19;;;;;;;6.72;5.03;;;;;;;7.96;99.42;96116.09;5047026;28;20124;-76
2024/02/10 03:21:45;;;;;;;9.38;5.65;;;;;;;7.75;100.00;96115.75;5027669;28;20037;-77
2024/02/10 03:24:10;;;;;;;5.82;4.82;;;;;;;7.77;100.00;96118.91;5049801;28;20094;-79
2024/02/10 03:26:37;;;;;;;5.63;4.57;;;;;;;7.85;100.00;96130.69;5050945;28;20083;-77
2024/02/10 03:29:05;;;;;;;7.38;5.07;;;;;;;7.85;100.00;96125.38;5035655;28;20025;-78
2024/02/10 03:31:33;;;;;;;5.65;4.32;;;;;;;7.89;99.44;96129.00;5050463;28;20119;-77
2024/02/10 03:33:59;;;;;;;7.03;4.60;;;;;;;8.00;99.63;96130.34;5048508;28;20543;-76
2024/02/10 03:36:25;;;;;;;5.88;4.93;;;;;;;7.92;99.75;96123.88;5045207;28;20032;-77
2024/02/10 03:38:53;;;;;;;8.80;4.65;;;;;;;8.01;99.57;96122.09;5046934;28;20054;-79
2024/02/10 03:41:19;;;;;;;5.55;4.38;;;;;;;7.99;98.96;96120.84;5043427;28;20110;-76
2024/02/10 03:43:45;;;;;;;7.03;4.47;;;;;;;7.93;99.45;96120.13;5046311;28;20732;-75
2024/02/10 03:46:13;;;;;;;7.13;3.90;;;;;;;7.88;99.10;96106.19;5045662;28;20036;-78
2024/02/10 03:48:39;;;;;;;4.20;3.80;;;;;;;8.00;99.16;96120.53;5050038;28;20516;-77
2024/02/10 03:51:05;;;;;;;4.40;3.47;;;;;;;8.05;99.15;96116.97;5046683;28;20036;-77
2024/02/10 03:53:32;;;;;;;4.40;3.75;;;;;;;8.02;98.83;96110.38;5049038;28;20035;-77
2024/02/10 03:55:58;;;;;;;4.80;4.28;;;;;;;8.08;98.95;96119.81;5052009;28;20473;-77
2024/02/10 03:58:24;;;;;;;5.88;3.55;;;;;;;8.04;98.65;96107.41;5048269;28;20074;-75
2024/02/10 04:00:50;;;;;;;4.57;3.67;;;;;;;7.93;99.09;96108.75;5026667;28;20040;-75
2024/02/10 04:03:17;;;;;;;3.65;3.35;;;;;;;7.94;99.54;96116.41;5042877;28;20031;-76
2024/02/10 04:05:46;;;;;;;6.05;3.88;;;;;;;7.72;100.00;96126.97;5041944;28;20114;-76
2024/02/10 04:08:11;;;;;;;6.43;3.75;;;;;;;7.86;100.00;96126.94;5046098;28;20025;-77
2024/02/10 04:10:37;;;;;;;3.17;2.88;;;;;;;7.71;100.00;96124.59;5052096;28;20048;-77
2024/02/10 04:13:02;;;;;;;5.50;3.15;;;;;;;7.74;100.00;96129.31;5044761;28;20031;-77
2024/02/10 04:15:30;;;;;;;3.33;3.03;;;;;;;7.94;100.00;96128.91;5051093;28;20154;-78
2024/02/10 04:17:56;;;;;;;3.63;3.10;;;;;;;8.04;99.29;96134.78;5043850;28;20025;-77
2024/02/10 04:20:23;;;;;;;4.63;3.10;;;;;;;7.99;99.45;96131.47;5047540;28;20387;-77
2024/02/10 04:22:49;;;;;;;2.90;2.60;;;;;;;8.01;98.94;96124.75;5048682;28;21071;-77
2024/02/10 04:25:15;;;;;;;3.97;3.22;;;;;;;8.05;98.96;96124.94;5044024;28;20501;-76
2024/02/10 04:27:41;;;;;;;4.63;3.13;;;;;;;7.91;99.53;96119.66;5047715;28;20115;-75
2024/02/10 04:30:07;;;;;;;4.38;3.10;;;;;;;7.72;99.97;96100.41;5047288;28;20035;-75
2024/02/10 04:32:33;;;;;;;5.97;2.88;;;;;;;7.55;100.00;96111.66;5048658;28;20531;-77
2024/02/10 04:34:59;;;;;;;6.05;3.72;;;;;;;7.36;100.00;96118.13;5049888;28;20025;-76
2024/02/10 04:37:25;;;;;;;5.15;3.20;;;;;;;7.44;100.00;96126.19;5049267;28;20048;-75
2024/02/10 04:39:50;;;;;;;3.88;3.38;;;;;;;7.42;100.00;96123.03;5048284;28;20398;-75
2024/02/10 04:42:15;;;;;;;4.50;3.30;;;;;;;7.28;100.00;96118.78;5047211;28;20371;-76
2024/02/10 04:44:48;;;;;;;4.68;3.60;;;;;;;7.64;100.00;96113.59;5049030;28;20036;-77
2024/02/10 04:47:15;;;;;;;6.53;4.80;;;;;;;7.35;100.00;96112.03;5049334;28;20033;-77
2024/02/10 04:49:40;;;;;;;3.75;3.03;;;;;;;7.78;100.00;96117.81;5049842;28;20108;-76
2024/02/10 04:52:05;;;;;;;5.45;3.28;;;;;;;8.20;98.81;96114.78;5049706;28;20157;-77
2024/02/10 04:54:31;;;;;;;4.07;3.13;;;;;;;8.23;97.42;96129.34;5048138;28;20047;-77
2024/02/10 04:56:58;;;;;;;3.50;3.20;;;;;;;8.09;97.48;96121.41;5046675;28;20032;-77
2024/02/10 04:59:25;;;;;;;4.80;3.10;;;;;;;8.12;97.94;96125.31;5048352;28;20033;-76
2024/02/10 05:01:52;;;;;;;3.80;2.90;;;;;;;8.12;97.12;96117.34;5049554;28;20553;-76
2024/02/10 05:04:17;;;;;;;3.28;2.70;;;;;;;8.13;96.96;96109.09;5049262;28;20116;-76
2024/02/10 05:06:43;;;;;;;2.75;2.53;;;;;;;8.12;97.40;96112.03;5050486;28;20120;-77
2024/02/10 05:09:11;;;;;;;4.13;2.75;;;;;;;8.15;96.63;96103.47;5047976;28;20039;-76
2024/02/10 05:11:36;;;;;;;4.07;2.63;;;;;;;7.95;97.05;96112.66;5047717;28;20021;-76
2024/02/10 05:14:04;;;;;;;3.03;2.72;;;;;;;8.10;97.60;96111.56;5059214;28;20037;-76
2024/02/10 05:16:29;;;;;;;3.85;2.85;;;;;;;8.21;97.02;96108.34;5046109;28;20024;-76
2024/02/10 05:18:56;;;;;;;3.70;3.28;;;;;;;8.13;97.19;96122.38;5030961;28;21450;-77
2024/02/10 05:21:24;;;;;;;3.20;2.80;;;;;;;8.03;97.20;96111.19;5046551;28;20115;-76
2024/02/10 05:23:50;;;;;;;4.70;3.20;;;;;;;7.86;98.24;96117.13;5044057;28;20393;-77
2024/02/10 05:26:17;;;;;;;2.85;2.65;;;;;;;7.77;98.38;96116.25;5045152;28;20029;-77
2024/02/10 05:28:47;;;;;;;4.80;3.75;;;;;;;7.80;98.45;96112.97;5044497;28;20029;-77
2024/02/10 05:31:13;;;;;;;4.82;3.47;;;;;;;8.19;97.00;96112.44;5042939;28;20094;-76
2024/02/10 05:33:42;;;;;;;3.47;3.17;;;;;;;8.24;95.97;96112.28;5044100;28;20021;-76
2024/02/10 05:36:08;;;;;;;4.55;3.50;;;;;;;8.03;96.32;96109.31;5043948;28;20024;-76
2024/02/10 05:38:33;;;;;;;5.93;4.72;;;;;;;7.64;98.55;96110.94;5045470;28;20389;-75
2024/02/10 05:41:04;;;;;;;4.55;3.67;;;;;;;7.61;100.00;96106.22;5045258;28;20568;-75
2024/02/10 05:43:29;;;;;;;7.05;3.55;;;;;;;7.98;98.16;96116.59;5050756;28;20021;-77
2024/02/10 05:45:55;;;;;;;3.80;3.20;;;;;;;8.04;97.77;96113.53;5044383;28;20142;-77
2024/02/10 05:48:27;;;;;;;5.03;3.17;;;;;;;8.12;97.29;96112.03;5042550;28;20122;-76
2024/02/10 05:50:54;;;;;;;3.78;3.28;;;;;;;8.23;96.24;96108.06;5025970;28;20056;-78
2024/02/10 05:53:19;;;;;;;4.68;3.65;;;;;;;8.15;96.37;96098.94;5046377;28;20549;-78
2024/02/10 05:55:44;;;;;;;4.40;4.00;;;;;;;7.89;97.03;96113.06;5028837;28;20112;-79
2024/02/10 05:58:10;;;;;;;4.75;3.53;;;;;;;8.07;97.78;96117.47;5051270;28;20028;-78
2024/02/10 06:00:40;;;;;;;6.70;3.75;;;;;;;8.10;96.94;96116.88;5053704;28;20496;-77
2024/02/10 06:03:05;;;;;;;4.68;3.55;;;;;;;8.22;95.86;96119.78;5054664;28;20235;-78
2024/02/10 06:05:31;;;;;;;3.83;3.53;;;;;;;8.08;96.17;96130.44;5051050;28;20706;-77
2024/02/10 06:07:56;;;;;;;4.40;3.63;;;;;;;8.01;96.43;96119.44;5054194;28;20119;-76
2024/02/10 06:10:22;;;;;;;4.75;3.67;;;;;;;8.01;96.19;96118.66;5050294;28;20127;-76
2024/02/10 06:12:50;;;;;;;3.90;3.47;;;;;;;8.03;96.41;96117.28;5029561;28;20038;-78
2024/02/10 06:15:17;;;;;;;3.97;3.22;;;;;;;7.94;96.63;96118.28;5047147;28;20025;-77
2024/02/10 06:17:55;;;;;;;5.38;3.58;;;;;;;8.04;97.42;96133.97;5031596;28;20017;-76
2024/02/10 06:20:22;;;;;;;4.93;4.10;;;;;;;7.95;97.52;96127.81;5049592;28;20025;-76
2024/02/10 06:22:54;;;;;;;4.00;3.63;;;;;;;7.96;97.08;96138.16;5053166;28;20029;-77
2024/02/10 06:25:25;;;;;;;5.32;3.67;;;;;;;7.88;97.65;96138.06;5050567;28;20049;-76
2024/02/10 06:28:01;;;;;;;4.15;3.75;;;;;;;7.95;97.39;96141.09;5050679;28;20436;-77
2024/02/10 06:30:30;;;;;;;5.03;3.80;;;;;;;7.98;96.95;96145.81;5045925;28;20521;-77
2024/02/10 06:32:56;;;;;;;5.93;4.90;;;;;;;7.99;97.11;96142.88;5043147;28;20036;-77
2024/02/10 06:35:22;;;;;;;6.60;4.45;;;;;;;7.94;97.52;96158.09;5071742;28;20024;-77
2024/02/10 06:37:49;;;;;;;4.97;4.45;;;;;;;7.91;97.49;96161.34;5050659;28;20033;-75
2024/02/10 06:40:15;;;;;;;6.05;4.35;;;;;;;8.08;97.09;96156.22;5048912;28;20060;-76
2024/02/10 06:42:42;;;;;;;5.28;4.45;;;;;;;8.02;96.74;96168.03;5045762;28;20122;-75
2024/02/10 06:45:14;;;;;;;7.13;4.35;;;;;;;7.98;97.81;96167.06;5048637;28;20033;-76
2024/02/10 06:47:44;;;;;;;6.18;4.93;;;;;;;8.16;96.50;96171.47;5049130;28;20398;-77
2024/02/10 06:50:14;;;;;;;6.43;4.38;;;;;;;8.13;96.63;96172.03;5028760;28;20028;-77
2024/02/10 06:52:41;;;;;;;5.65;4.00;;;;;;;8.11;96.17;96182.19;5047561;28;20024;-77
2024/02/10 06:55:13;;;;;;;4.95;4.03;;;;;;;8.11;96.16;96175.00;5052997;28;20055;-78
2024/02/10 06:57:41;;;;;;;5.25;4.32;;;;;;;8.18;96.04;96172.75;5046175;28;20068;-76
2024/02/10 07:00:13;;;;;;;6.00;4.43;;;;;;;8.22;95.71;96180.88;5042257;28;20128;-75
2024/02/10 07:02:41;;;;;;;5.22;4.22;;;;;;;8.08;96.28;96178.25;5042332;28;20039;-77
2024/02/10 07:05:08;;;;;;;5.13;4.43;;;;;;;8.01;96.78;96171.78;5043595;28;20048;-77
2024/02/10 07:07:33;;;;;;;4.60;4.20;;;;;;;8.07;95.80;96171.38;5043838;28;20041;-77
2024/02/10 07:09:59;;;;;;;4.90;4.30;;;;;;;8.07;95.95;96173.25;5041080;28;20039;-78
2024/02/10 07:12:27;;;;;;;5.28;4.45;;;;;;;8.23;95.99;96190.44;5051830;28;20037;-79
2024/02/10 07:14:54;;;;;;;6.25;4.00;;;;;;;8.10;95.91;96186.72;5047528;28;20025;-77
2024/02/10 07:17:20;;;;;;;6.20;4.78;;;;;;;7.96;96.59;96179.84;5046361;28;20112;-77
2024/02/10 07:19:49;;;;;;;6.40;4.10;;;;;;;7.93;97.75;96193.72;5045511;28;20116;-78
2024/02/10 07:22:16;;;;;;;4.80;4.30;;;;;;;7.98;96.57;96178.47;5032808;28;20512;-80
2024/02/10 07:24:46;;;;;;;3.85;3.45;;;;;;;8.09;96.77;96193.13;5029502;28;20512;-74
2024/02/10 07:27:17;;;;;;;5.32;4.07;;;;;;;8.08;96.55;96196.84;5045312;28;21515;-78
2024/02/10 07:29:45;;;;;;;4.35;3.95;;;;;;;8.07;96.84;96186.53;5029026;28;20474;-81
2024/02/10 07:32:12;;;;;;;5.50;4.07;;;;;;;8.09;96.44;96206.41;5046908;28;20036;-79
2024/02/10 07:34:38;;;;;;;5.13;4.25;;;;;;;8.24;95.90;96207.94;5047218;28;20032;-78
2024/02/10 07:37:04;;;;;;;5.05;3.92;;;;;;;8.19;95.60;96213.38;5029923;28;20048;-77
2024/02/10 07:39:30;;;;;;;5.47;3.83;;;;;;;7.99;96.90;96211.13;5051140;28;20032;-76
2024/02/10 07:41:56;;;;;;;4.50;3.95;;;;;;;7.90;97.86;96212.91;5051267;28;20047;-76
2024/02/10 07:44:21;;;;;;;6.45;4.10;;;;;;;7.93;98.24;96220.28;5053835;28;20386;-77
2024/02/10 07:46:47;;;;;;;3.85;3.55;;;;;;;7.98;98.13;96225.47;5049910;28;20024;-79
2024/02/10 07:49:13;;;;;;;4.90;3.60;;;;;;;7.92;98.02;96219.50;5047624;28;20126;-76
2024/02/10 07:51:39;;;;;;;6.72;3.95;;;;;;;8.01;98.04;96207.09;5051176;28;20035;-75
2024/02/10 07:54:05;;;;;;;5.00;4.00;;;;;;;8.17;97.40;96207.56;5051720;28;20029;-77
2024/02/10 07:56:32;;;;;;;4.68;3.78;;;;;;;8.11;97.64;96198.91;5047501;28;20025;-74
2024/02/10 07:59:02;;;;;;;4.97;4.15;;;;;;;8.14;97.02;96206.31;5051492;28;20481;-77
2024/02/10 08:01:30;;;;;;;4.55;3.03;;;;;;;8.06;97.88;96200.91;5048062;22;20117;-80
2024/02/10 08:03:57;;;;;;;4.68;4.13;;;;;;;8.24;96.84;96205.28;5038257;28;20030;-81
2024/02/10 08:06:26;;;;;;;4.32;3.78;;;;;;;8.28;96.16;96215.06;5054621;28;20022;-80
2024/02/10 08:08:57;;;;;;;5.95;4.25;;;;;;;8.10;96.37;96196.56;5043421;28;20029;-79
2024/02/10 08:11:23;;;;;;;5.07;3.33;;;;;;;8.34;96.57;96229.03;5001839;28;20057;-80
2024/02/10 08:13:51;;;;;;;3.97;3.35;;;;;;;8.20;96.98;96212.28;5006750;28;20060;-79
2024/02/10 08:16:17;;;;;;;5.30;3.72;;;;;;;8.23;96.82;96209.03;5007047;28;20498;-79
2024/02/10 08:18:43;;;;;;;4.45;3.58;;;;;;;8.31;97.11;96224.31;5026520;28;20483;-80
2024/02/10 08:21:09;;;;;;;7.03;4.50;;;;;;;8.24;97.37;96213.25;4999285;28;20034;-79
2024/02/10 08:23:38;;;;;;;3.85;3.45;;;;;;;8.19;96.61;96221.34;5027592;28;20033;-80
2024/02/10 08:26:05;;;;;;;6.35;4.03;;;;;;;8.32;97.52;96231.97;5023173;28;20389;-81
2024/02/10 08:28:30;;;;;;;4.13;3.72;;;;;;;8.15;98.25;96236.28;5026999;28;20445;-80
2024/02/10 08:30:57;;;;;;;3.75;3.33;;;;;;;8.05;98.47;96221.38;5007855;28;20071;-80
2024/02/10 08:33:22;;;;;;;3.55;3.20;;;;;;;8.09;99.28;96232.97;5007855;28;20528;-80
2024/02/10 08:35:48;;;;;;;3.70;2.90;;;;;;;8.18;99.64;96246.34;5032022;28;20037;-80
2024/02/10 08:38:14;;;;;;;4.20;3.55;;;;;;;8.32;98.36;96250.56;5029670;28;20040;-80
2024/02/10 08:40:40;;;;;;;4.13;3.63;;;;;;;8.20;97.98;96210.44;5013856;28;20056;-80
2024/02/10 08:43:08;;;;;;;3.75;3.45;;;;;;;8.36;98.71;96236.72;5008553;28;20120;-79
2024/02/10 08:45:34;;;;;;;4.10;3.63;;;;;;;8.42;98.43;96246.94;4997107;28;20029;-80
2024/02/10 08:48:00;;;;;;;3.85;3.15;;;;;;;8.32;98.17;96209.16;5029845;28;20030;-80
2024/02/10 08:50:26;;;;;;;4.53;3.40;;;;;;;8.40;98.59;96232.38;5007616;28;20040;-80
2024/02/10 08:52:56;;;;;;;3.53;3.22;;;;;;;8.45;98.96;96238.38;5035882;28;20036;-79
2024/02/10 08:55:25;;;;;;;3.55;3.25;;;;;;;8.38;99.07;96224.69;5035607;28;20029;-81
2024/02/10 08:57:55;;;;;;;4.22;2.80;;;;;;;8.47;99.67;96230.88;5031670;28;20036;-81
2024/02/10 09:00:21;;;;;;;5.07;3.42;;;;;;;8.35;100.00;96212.00;4998566;28;20089;-81
2024/02/10 09:02:49;;;;;;;3.63;3.25;;;;;;;8.55;100.00;96235.50;5047715;28;20033;-80
2024/02/10 09:05:14;;;;;;;5.20;3.25;;;;;;;8.56;100.00;96220.31;5016928;28;20502;-81
2024/02/10 09:07:40;;;;;;;5.90;3.80;;;;;;;8.53;99.81;96208.41;5026252;28;20041;-82
2024/02/10 09:10:06;;;;;;;3.10;2.80;;;;;;;8.70;98.16;96215.75;5029256;28;20042;-80
2024/02/10 09:12:31;;;;;;;5.53;3.30;;;;;;;8.91;97.83;96222.19;5019126;28;20033;-81
2024/02/10 09:14:56;;;;;;;2.58;2.38;;;;;;;8.85;97.71;96229.47;5032531;28;20033;-82
2024/02/10 09:17:23;;;;;;;7.00;3.85;;;;;;;8.75;100.00;96227.06;5027229;28;20022;-80
2024/02/10 09:19:49;;;;;;;3.35;2.78;;;;;;;8.85;100.00;96229.47;5026103;28;20076;-82
2024/02/10 09:22:14;;;;;;;5.00;2.72;;;;;;;8.94;97.66;96217.03;5047511;28;20042;-80
2024/02/10 09:24:39;;;;;;;3.45;3.13;;;;;;;8.88;100.00;96217.47;5032877;28;20038;-80
2024/02/10 09:27:08;;;;;;;3.40;3.00;;;;;;;8.85;100.00;96218.06;5021510;28;20087;-81
2024/02/10 09:29:34;;;;;;;5.20;3.67;;;;;;;8.91;100.00;96228.28;5044326;28;20030;-80
2024/02/10 09:32:00;;;;;;;3.05;2.78;;;;;;;8.97;100.00;96232.41;5025787;28;20025;-81
2024/02/10 09:34:27;;;;;;;3.90;3.15;;;;;;;8.94;100.00;96234.88;5048569;28;20380;-81
2024/02/10 09:36:53;;;;;;;5.15;3.38;;;;;;;9.05;99.67;96228.22;5039272;28;20036;-80
2024/02/10 09:39:20;;;;;;;4.00;3.47;;;;;;;9.04;100.00;96235.41;5031800;28;20070;-80
2024/02/10 09:41:47;;;;;;;4.63;2.97;;;;;;;9.12;97.66;96231.25;5049204;28;20017;-81
2024/02/10 09:44:15;;;;;;;5.55;2.78;;;;;;;8.96;100.00;96227.38;5030042;28;20022;-81
2024/02/10 09:46:42;;;;;;;3.25;2.92;;;;;;;9.24;98.75;96226.16;5032310;28;20026;-80
2024/02/10 09:49:09;;;;;;;2.45;2.25;;;;;;;9.25;96.98;96224.28;5039277;28;20104;-81
2024/02/10 09:51:37;;;;;;;3.03;2.47;;;;;;;9.23;97.13;96203.31;5039403;28;20030;-80
2024/02/10 09:54:03;;;;;;;3.22;2.30;;;;;;;9.20;100.00;96225.19;5032730;28;20029;-81
2024/02/10 09:56:30;;;;;;;4.45;2.42;;;;;;;9.19;99.57;96212.22;5019611;28;20029;-80
2024/02/10 09:58:56;;;;;;;5.97;2.85;;;;;;;8.76;100.00;96161.34;5004284;28;20038;-80
2024/02/10 10:01:22;;;;;;;4.22;2.65;;;;;;;9.10;100.00;96217.47;4988194;28;20040;-79
2024/02/10 10:03:48;;;;;;;2.70;2.50;;;;;;;9.10;100.00;96200.72;5007847;28;20057;-80
2024/02/10 10:06:14;;;;;;;4.53;3.00;;;;;;;9.18;98.74;96195.44;5001834;28;20030;-80
2024/02/10 10:08:41;;;;;;;4.97;2.88;;;;;;;9.01;99.45;96185.50;4998205;28;20041;-80
2024/02/10 10:11:08;;;;;;;2.75;2.25;;;;;;;9.48;98.43;96215.22;5025839;28;20422;-80
2024/02/10 10:13:35;;;;;;;4.18;2.97;;;;;;;9.43;99.32;96218.00;5028200;28;20029;-80
2024/02/10 10:16:05;;;;;;;4.30;2.70;;;;;;;9.32;100.00;96219.34;5026115;28;20041;-81
2024/02/10 10:18:31;;;;;;;2.45;2.25;;;;;;;9.26;100.00;96207.25;5023174;28;20085;-81
2024/02/10 10:20:57;;;;;;;3.63;3.33;;;;;;;9.46;100.00;96233.34;5025396;28;20057;-81
2024/02/10 10:23:22;;;;;;;6.80;4.13;;;;;;;9.55;100.00;96234.97;5026892;28;20029;-81
2024/02/10 10:25:48;;;;;;;4.68;3.28;;;;;;;9.70;100.00;96228.44;5021715;28;20101;-80
2024/02/10 10:28:16;;;;;;;5.57;3.72;;;;;;;9.90;100.00;96217.25;5042101;28;20025;-80
2024/02/10 10:30:46;;;;;;;4.32;3.25;;;;;;;9.95;100.00;96219.00;5022979;28;20052;-80
2024/02/10 10:33:18;;;;;;;5.45;3.28;;;;;;;10.08;100.00;96223.44;5015686;28;20041;-80
2024/02/10 10:35:45;;;;;;;3.85;3.20;;;;;;;10.19;100.00;96232.75;5036233;28;20022;-81
2024/02/10 10:38:14;;;;;;;5.57;3.13;;;;;;;10.24;100.00;96235.28;5024450;28;20025;-80
2024/02/10 10:40:41;;;;;;;5.25;3.35;;;;;;;10.24;99.47;96217.38;5045303;28;20033;-80
2024/02/10 10:43:10;;;;;;;3.80;3.17;;;;;;;10.22;98.75;96216.91;5040827;28;20032;-80
2024/02/10 10:45:39;;;;;;;6.15;3.55;;;;;;;10.20;98.30;96216.44;5019579;28;20067;-79
2024/02/10 10:48:05;;;;;;;3.88;2.80;;;;;;;10.42;97.17;96236.88;5036492;28;20044;-81
2024/02/10 10:50:32;;;;;;;7.25;3.83;;;;;;;10.42;96.53;96232.34;5026998;28;20030;-80
2024/02/10 10:53:06;;;;;;;3.45;2.70;;;;;;;10.33;97.82;96228.84;5005252;28;20033;-80
2024/02/10 10:55:39;;;;;;;3.45;2.63;;;;;;;10.30;97.08;96221.50;5033173;28;20132;-80
2024/02/10 10:58:10;;;;;;;3.25;2.95;;;;;;;10.33;97.28;96228.09;5040092;28;20040;-81
2024/02/10 11:00:39;;;;;;;2.83;2.47;;;;;;;10.36;97.53;96214.91;5041492;28;20033;-81
2024/02/10 11:03:04;;;;;;;3.63;2.45;;;;;;;10.49;96.50;96211.34;5013845;28;20041;-80
2024/02/10 11:05:38;;;;;;;3.03;1.77;;;;;;;10.40;96.79;96209.75;5041096;28;20052;-80
2024/02/10 11:08:04;;;;;;;2.40;1.60;;;;;;;10.43;96.71;96217.13;5040356;28;20056;-80
2024/02/10 11:10:48;;;;;;;2.50;1.92;;;;;;;10.51;97.21;96190.47;5038677;28;20097;-80
2024/02/10 11:13:26;;;;;;;3.13;2.20;;;;;;;10.49;96.19;96208.66;5017948;28;20053;-80
2024/02/10 11:16:12;;;;;;;2.00;1.80;;;;;;;10.65;96.31;96208.22;5013175;28;20022;-79
2024/02/10 11:18:38;;;;;;;;;;;;;;;10.56;96.35;96208.19;5018246;28;20026;-80
2024/02/10 11:21:25;;;;;;;4.72;1.58;;;;;;;10.45;96.34;96194.38;5045220;28;19913;-80
2024/02/10 11:24:00;;;;;;;2.35;1.33;;;;;;;10.59;96.48;96196.13;5032843;28;20036;-80
2024/02/10 11:26:31;;;;;;;2.38;1.60;;;;;;;10.58;96.55;96203.34;5032793;28;20090;-80
2024/02/10 11:29:07;;;;;;;2.67;2.13;;;;;;;10.69;96.94;96190.47;5025097;28;20040;-80
2024/02/10 11:31:33;;;;;;;3.53;1.60;;;;;;;10.62;95.85;96193.63;5038025;28;20041;-80
2024/02/10 11:34:11;;;;;;;1.60;1.38;;;;;;;10.72;96.69;96189.84;5040512;28;20025;-80
2024/02/10 11:36:37;;;;;;;2.17;1.42;;;;;;;10.81;96.03;96167.41;5028073;28;20032;-80
2024/02/10 11:39:03;;;;;;;1.60;1.50;;;;;;;10.74;95.79;96174.31;5039980;28;20041;-82